Portada
METAR-TAF:

METAR-TAF

Aeroports :

Black River Falls, Wisconsin, Estats Units d'Amèrica

latitud: 44-15-03N, longitud: 090-51-19W, altitud: 255 m

Observació

L'informe es va fer fa 23 minuts, a les 01:55 UTC
Vent 7 kt del Sud
Temperatura 3°C
Humitat 60%
Pressió 1008 hPa
Visibilitat: 16.1 km
Cel clar

METAR: KBCK 190155Z AUTO 18007KT 10SM CLR 03/M04 A2976 RMK AO2 T00251042

Hora: 20:18 (02:18 UTC)


TAF: manca

Observacions i pronòstics meteorològics de més de 4000 aeroports (METAR i TAF).

Les estacions disponibles són els punts grocs i vermells al mapa.

Posi el ratolí al punt desitjat per veure el nom de l'estació.

Feu clic per veure les observacions i els pronòstics meteorològics.

Per canviar el mapa: feu clic els botons verds amb una creu de color negre per apropar; al botó verd amb un guió per allunyar la imatge; o en les fletxes verdes per a mapes adjacents.


METAR-TAF: